Seabourn Pride — C6FR5 — position and weather

sailwx.info

Track history (hours):
 
Tides and Currents Weather Stations Pressure Air Temp Water Temp Dewpoint Dewpoint Depression Visibility Wind Speed Wind Dir Waves Ship Positions

Seabourn Pride

Operator: Cunard Seabourn

Last reported at 2016-Oct-30 08:32 UTC. Time now 2017-Mar-25 19:30 UTC.
Position N 31°39' W 014°27'.
Warning: this ship's position is months out of date.

Length 134 m; draft 5.7 m.

Type: Passenger vessel. MMSI: 311084000.

Date/timePositionNaut miles runAvg speedWind from/ knotsBaromVisibWave heightAir tempDewpointWater temp
2016-Oct-30 08:32N 31°39' W 014°27'1613.1
2016-Oct-30 07:19N 31°53' W 014°17'43912.3
2016-Oct-28 19:32N 38°10' W 009°43'3913.3
2016-Oct-28 16:34N 38°41' W 009°13'4 4.3
2016-Oct-28 15:32N 38°43' W 009°07'0 0.0
2016-Oct-28 14:33N 38°43' W 009°07'0 0.0
2016-Oct-28 09:32N 38°43' W 009°07'0 0.0
2016-Oct-28 08:33N 38°43' W 009°07'0 0.0
2016-Oct-28 07:34N 38°43' W 009°07'57 8.2
2016-Oct-28 00:33N 37°46' W 009°22'1312.7
2016-Oct-27 23:32N 37°33' W 009°21'47 3.3
2016-Oct-27 09:19N 37°08' W 008°32'  
2016-Oct-25 02:26N 35°58' W 005°37'  
2016-Oct-22 17:27N 37°08' W 000°54'9 9.1
2016-Oct-22 16:29N 37°13' W 000°45'176 9.3
2016-Oct-21 21:31N 39°02' E 002°10'38 7.5
2016-Oct-21 16:31N 39°33' E 002°38'0 0.0
2016-Oct-21 15:31N 39°33' E 002°38'0 0.0
2016-Oct-21 14:32N 39°33' E 002°38'0 0.0
2016-Oct-21 13:31N 39°33' E 002°38'0 0.0
2016-Oct-21 09:31N 39°33' E 002°38'0 0.0
2016-Oct-21 08:33N 39°33' E 002°38'0 0.0
2016-Oct-21 06:32N 39°33' E 002°38'31 5.2
2016-Oct-21 00:33N 39°59' E 002°15'2210.9
2016-Oct-20 22:33N 40°21' E 002°11'2010.0
2016-Oct-20 20:33N 40°41' E 002°11'  
Track history (hours):
 
Tides and Currents Weather Stations Pressure Air Temp Water Temp Dewpoint Dewpoint Depression Visibility Wind Speed Wind Dir Waves Ship Positions

Seabourn Pride

Operator: Cunard Seabourn

Last reported at 2016-Oct-30 08:32 UTC. Time now 2017-Mar-25 19:30 UTC.
Position N 31°39' W 014°27'.
Warning: this ship's position is months out of date.

Length 134 m; draft 5.7 m.

Type: Passenger vessel. MMSI: 311084000.

Date/timePositionNaut miles runAvg speedWind from/ knotsBaromVisibWave heightAir tempDewpointWater temp
2016-Oct-30 08:32N 31°39' W 014°27'1613.1
2016-Oct-30 07:19N 31°53' W 014°17'43912.3
2016-Oct-28 19:32N 38°10' W 009°43'3913.3
2016-Oct-28 16:34N 38°41' W 009°13'4 4.3
2016-Oct-28 15:32N 38°43' W 009°07'0 0.0
2016-Oct-28 14:33N 38°43' W 009°07'0 0.0
2016-Oct-28 09:32N 38°43' W 009°07'0 0.0
2016-Oct-28 08:33N 38°43' W 009°07'0 0.0
2016-Oct-28 07:34N 38°43' W 009°07'57 8.2
2016-Oct-28 00:33N 37°46' W 009°22'1312.7
2016-Oct-27 23:32N 37°33' W 009°21'47 3.3
2016-Oct-27 09:19N 37°08' W 008°32'  
2016-Oct-25 02:26N 35°58' W 005°37'  
2016-Oct-22 17:27N 37°08' W 000°54'9 9.1
2016-Oct-22 16:29N 37°13' W 000°45'176 9.3
2016-Oct-21 21:31N 39°02' E 002°10'38 7.5
2016-Oct-21 16:31N 39°33' E 002°38'0 0.0
2016-Oct-21 15:31N 39°33' E 002°38'0 0.0
2016-Oct-21 14:32N 39°33' E 002°38'0 0.0
2016-Oct-21 13:31N 39°33' E 002°38'0 0.0
2016-Oct-21 09:31N 39°33' E 002°38'0 0.0
2016-Oct-21 08:33N 39°33' E 002°38'0 0.0
2016-Oct-21 06:32N 39°33' E 002°38'31 5.2
2016-Oct-21 00:33N 39°59' E 002°15'2210.9
2016-Oct-20 22:33N 40°21' E 002°11'2010.0
2016-Oct-20 20:33N 40°41' E 002°11'  

Dump ship's entire track history